Time;durP1;ratioP1;P1;durP2;ratioP2;P2;SDS_P1;SDS_P2;PMS_P1;PMS_P2;Temp;Humidity;BMP_temperature;BMP_pressure;BME280_temperature;BME280_humidity;BME280_pressure;Samples;Min_cycle;Max_cycle;Signal;HPM_P1;HPM_P2
2020/12/29 00:08:30;;;;;;;8.60;5.23;;;;;;;5.51;71.60;95727.83;489868;1148;104830;-43
2020/12/29 00:18:36;;;;;;;13.37;7.43;;;;;;;5.67;72.54;95710.96;489678;1147;104506;-41
2020/12/29 00:28:40;;;;;;;14.57;7.83;;;;;;;5.73;71.99;95709.91;489924;1148;104544;-44
2020/12/29 00:38:45;;;;;;;10.87;5.97;;;;;;;5.73;72.38;95693.40;489780;1147;104502;-41
2020/12/29 00:48:50;;;;;;;7.27;3.83;;;;;;;5.90;71.73;95704.33;489680;1147;104499;-40
2020/12/29 00:58:57;;;;;;;13.93;7.53;;;;;;;5.92;72.20;95702.24;489800;1147;104512;-41
2020/12/29 01:09:02;;;;;;;11.30;6.50;;;;;;;5.85;72.08;95693.84;489857;1148;104527;-43
2020/12/29 01:19:08;;;;;;;8.93;5.87;;;;;;;5.77;71.69;95679.47;489814;1147;104517;-41
2020/12/29 01:29:13;;;;;;;5.77;3.33;;;;;;;5.88;72.43;95668.91;489814;1148;104521;-43
2020/12/29 01:39:17;;;;;;;9.97;5.77;;;;;;;5.88;72.79;95634.82;489795;1148;104626;-42
2020/12/29 01:49:21;;;;;;;12.10;5.70;;;;;;;5.85;73.18;95628.28;489958;1148;104560;-41
2020/12/29 01:59:26;;;;;;;12.45;6.95;;;;;;;5.76;72.98;95625.47;489763;1147;104527;-41
2020/12/29 02:09:31;;;;;;;10.53;6.57;;;;;;;5.70;72.55;95625.78;489921;1148;104554;-41
2020/12/29 02:19:36;;;;;;;6.63;4.33;;;;;;;5.70;72.82;95604.81;489761;1148;105586;-41
2020/12/29 02:29:40;;;;;;;7.63;4.90;;;;;;;5.79;72.85;95603.16;489897;1148;104541;-43
2020/12/29 02:39:50;;;;;;;8.17;4.93;;;;;;;5.78;72.97;95598.98;490035;1148;104509;-43
2020/12/29 02:49:53;;;;;;;8.37;5.23;;;;;;;5.79;72.97;95595.30;491036;1108;104537;-41
2020/12/29 02:59:57;;;;;;;4.63;3.43;;;;;;;5.98;73.09;95579.72;490726;1147;104975;-42
2020/12/29 03:10:00;;;;;;;7.50;4.67;;;;;;;6.02;74.01;95583.36;490918;1147;104624;-41
2020/12/29 03:20:04;;;;;;;15.20;7.83;;;;;;;5.91;74.26;95579.23;490413;1147;104511;-40
2020/12/29 03:30:07;;;;;;;20.77;9.27;;;;;;;5.68;74.41;95557.09;491050;1147;104565;-44
2020/12/29 03:40:10;;;;;;;13.23;7.70;;;;;;;5.57;74.83;95564.25;490449;1147;104866;-41
2020/12/29 03:50:14;;;;;;;6.77;5.47;;;;;;;5.45;74.73;95569.84;490625;1147;104557;-42
2020/12/29 04:00:17;;;;;;;6.35;4.60;;;;;;;5.34;75.75;95557.05;490960;1147;104940;-43
2020/12/29 04:10:20;;;;;;;11.80;7.57;;;;;;;5.18;75.81;95544.03;490932;1147;104576;-42
2020/12/29 04:20:23;;;;;;;11.93;7.53;;;;;;;5.00;76.45;95533.41;491060;1147;104518;-41
2020/12/29 04:30:27;;;;;;;15.57;7.90;;;;;;;4.97;75.96;95519.03;490851;1147;104518;-45
2020/12/29 04:40:30;;;;;;;14.30;8.90;;;;;;;4.94;76.97;95525.56;491038;1147;104883;-41
2020/12/29 04:50:33;;;;;;;12.30;8.97;;;;;;;4.98;76.86;95517.19;490596;1147;104609;-41
2020/12/29 05:00:37;;;;;;;14.03;7.60;;;;;;;5.00;77.38;95507.23;491031;1147;104505;-44
2020/12/29 05:10:46;;;;;;;14.27;9.37;;;;;;;4.91;77.47;95523.48;490424;1147;104514;-44
2020/12/29 05:20:49;;;;;;;19.45;10.58;;;;;;;4.81;77.83;95536.63;490396;1146;104548;-42
2020/12/29 05:41:13;;;;;;;40.27;20.87;;;;;;;4.82;77.91;95555.73;490368;1147;104669;-40
2020/12/29 05:51:16;;;;;;;24.80;15.57;;;;;;;4.87;77.70;95563.56;490580;1148;104528;-42
2020/12/29 06:01:19;;;;;;;26.40;15.55;;;;;;;4.90;78.16;95576.90;491030;1147;104555;-40
2020/12/29 06:21:40;;;;;;;35.63;17.63;;;;;;;4.66;78.76;95599.48;490460;1147;104566;-41
2020/12/29 06:31:43;;;;;;;18.87;10.33;;;;;;;4.69;78.62;95613.88;490686;1147;104613;-41
2020/12/29 06:41:46;;;;;;;18.40;10.40;;;;;;;4.75;78.89;95631.94;490624;1146;104525;-42
2020/12/29 07:02:35;;;;;;;5.50;3.70;;;;;;;4.54;79.27;95693.20;490572;1147;104559;-43
2020/12/29 07:12:42;;;;;;;5.10;2.73;;;;;;;4.34;79.16;95724.59;490792;1147;105582;-42
2020/12/29 07:22:52;;;;;;;3.63;3.30;;;;;;;4.17;79.93;95762.22;490408;1146;104544;-41
2020/12/29 07:32:57;;;;;;;4.27;3.00;;;;;;;4.04;80.28;95793.32;490794;1147;104524;-42
2020/12/29 07:43:01;;;;;;;12.17;5.63;;;;;;;3.90;80.36;95821.76;490493;1147;104478;-42
2020/12/29 07:53:04;;;;;;;6.63;4.83;;;;;;;3.88;80.42;95857.83;490682;1147;104518;-42
2020/12/29 08:03:07;;;;;;;11.07;6.23;;;;;;;3.88;80.51;95876.13;490520;1147;104514;-42
2020/12/29 08:13:10;;;;;;;8.33;6.57;;;;;;;3.90;80.71;95908.81;491066;1147;104889;-41
2020/12/29 08:23:13;;;;;;;9.10;5.80;;;;;;;3.97;81.20;95919.03;490619;1147;104544;-43
2020/12/29 08:33:16;;;;;;;9.85;6.45;;;;;;;4.01;80.90;95946.23;490655;1147;104621;-42
2020/12/29 08:43:19;;;;;;;7.83;4.93;;;;;;;4.11;81.10;95993.38;491137;1147;104488;-41
2020/12/29 09:03:42;;;;;;;11.50;7.57;;;;;;;4.35;81.01;96013.91;490306;1147;104941;-41
2020/12/29 09:14:03;;;;;;;7.93;5.83;;;;;;;4.73;81.01;96042.38;490422;1147;104526;-41
2020/12/29 09:24:07;;;;;;;10.00;6.70;;;;;;;5.18;80.35;96054.81;490763;1147;104514;-43
2020/12/29 09:34:11;;;;;;;9.30;6.63;;;;;;;5.50;80.18;96072.20;490558;1147;104518;-42
2020/12/29 09:44:14;;;;;;;11.37;7.63;;;;;;;5.91;80.35;96094.03;490870;1147;104522;-41
2020/12/29 09:54:17;;;;;;;14.20;8.60;;;;;;;6.12;79.25;96131.55;490548;1147;104902;-44
2020/12/29 10:04:20;;;;;;;10.03;7.13;;;;;;;6.17;79.52;96157.03;490757;1147;104514;-43
2020/12/29 10:14:23;;;;;;;14.33;8.50;;;;;;;6.21;78.48;96177.23;490390;1147;104571;-43
2020/12/29 10:24:27;;;;;;;18.20;10.20;;;;;;;6.22;79.27;96209.51;490646;1147;104623;-43
2020/12/29 10:34:31;;;;;;;12.57;7.60;;;;;;;6.20;78.24;96253.59;490521;1147;104510;-42
2020/12/29 10:44:34;;;;;;;12.13;7.27;;;;;;;6.13;78.07;96259.06;490555;1147;104959;-42
2020/12/29 10:54:38;;;;;;;12.47;6.97;;;;;;;6.07;77.09;96255.65;490719;1147;104944;-42
2020/12/29 11:04:41;;;;;;;11.63;6.87;;;;;;;6.12;77.15;96267.98;490874;1147;104524;-40
2020/12/29 11:14:45;;;;;;;16.07;9.27;;;;;;;5.88;76.15;96298.30;490542;1147;104517;-41
2020/12/29 11:24:48;;;;;;;12.97;7.70;;;;;;;5.86;76.27;96309.05;490431;1147;104816;-43
2020/12/29 11:34:51;;;;;;;8.10;5.50;;;;;;;6.19;75.18;96325.48;490646;1147;104844;-40
2020/12/29 11:44:55;;;;;;;14.47;6.73;;;;;;;6.35;75.29;96363.84;490748;1147;104574;-41
2020/12/29 11:54:59;;;;;;;13.10;5.97;;;;;;;6.29;75.16;96370.12;490536;1147;104540;-40
2020/12/29 12:05:02;;;;;;;17.13;8.23;;;;;;;6.20;74.73;96384.80;491106;1147;104570;-41
2020/12/29 12:15:05;;;;;;;9.60;5.63;;;;;;;6.20;74.30;96409.20;490990;1147;104500;-41
2020/12/29 12:25:09;;;;;;;10.10;5.05;;;;;;;6.18;73.18;96428.88;490658;1147;104764;-42
2020/12/29 12:35:12;;;;;;;10.83;4.97;;;;;;;6.19;72.19;96439.11;491265;1147;104499;-43
2020/12/29 12:45:15;;;;;;;12.23;4.77;;;;;;;6.14;71.97;96428.56;491233;1147;104550;-41
2020/12/29 12:55:18;;;;;;;8.67;4.70;;;;;;;6.12;71.67;96441.16;490889;1147;104777;-44
2020/12/29 13:05:22;;;;;;;9.00;4.97;;;;;;;6.10;71.61;96472.89;490514;1147;104506;-43
2020/12/29 13:15:27;;;;;;;11.73;4.87;;;;;;;6.19;72.42;96498.67;491040;1147;104487;-43
2020/12/29 13:25:31;;;;;;;11.83;5.77;;;;;;;6.21;71.90;96535.95;491374;1147;104884;-40
2020/12/29 13:35:38;;;;;;;10.83;5.87;;;;;;;6.19;71.65;96561.66;490929;1147;104503;-43
2020/12/29 13:45:41;;;;;;;11.77;5.13;;;;;;;6.08;71.37;96594.87;490743;1147;104962;-38
2020/12/29 13:55:45;;;;;;;21.40;8.53;;;;;;;5.90;71.34;96618.85;490714;1147;105665;-40
2020/12/29 14:05:48;;;;;;;23.70;9.67;;;;;;;5.82;71.50;96627.94;490509;1147;104838;-42
2020/12/29 14:15:51;;;;;;;25.03;9.80;;;;;;;5.70;70.66;96637.80;490598;1147;104625;-40
2020/12/29 14:25:55;;;;;;;25.70;11.50;;;;;;;5.65;71.18;96646.38;490575;1147;104593;-40
2020/12/29 14:36:16;;;;;;;46.47;20.17;;;;;;;5.53;71.18;96661.47;490392;1147;104514;-41
2020/12/29 14:46:23;;;;;;;28.50;12.50;;;;;;;5.34;70.54;96655.73;490563;1147;104510;-41
2020/12/29 15:06:43;;;;;;;47.20;20.65;;;;;;;4.85;71.21;96684.44;490819;1147;104798;-40
2020/12/29 15:16:46;;;;;;;35.63;15.60;;;;;;;4.75;70.98;96697.41;491031;1147;104491;-40
2020/12/29 15:26:50;;;;;;;34.10;15.90;;;;;;;4.66;71.16;96724.20;490564;1147;104438;-40
2020/12/29 15:36:54;;;;;;;31.40;14.20;;;;;;;4.56;71.60;96722.23;490695;1147;104820;-40
2020/12/29 15:46:57;;;;;;;39.23;15.70;;;;;;;4.50;71.87;96733.66;490855;1146;104553;-40
2020/12/29 15:57:01;;;;;;;22.83;11.53;;;;;;;4.49;71.73;96753.77;491333;1147;104869;-41
2020/12/29 16:07:05;;;;;;;29.07;12.77;;;;;;;4.45;71.58;96767.56;490801;1147;104486;-41
2020/12/29 16:17:08;;;;;;;38.87;15.60;;;;;;;4.31;71.97;96790.63;490713;1147;104566;-42
2020/12/29 16:27:12;;;;;;;35.23;13.20;;;;;;;4.21;72.01;96801.69;491031;1147;104517;-41
2020/12/29 16:37:15;;;;;;;30.63;13.00;;;;;;;4.17;72.20;96823.32;491286;1147;104593;-41
2020/12/29 16:47:19;;;;;;;21.97;11.03;;;;;;;4.16;72.08;96850.51;491242;1147;104500;-43
2020/12/29 16:57:23;;;;;;;22.93;11.00;;;;;;;4.14;72.17;96868.25;490872;1147;104518;-42
2020/12/29 17:07:27;;;;;;;33.57;19.17;;;;;;;3.93;72.50;96878.30;490688;1147;104803;-40
2020/12/29 17:17:30;;;;;;;97.57;42.70;;;;;;;3.68;72.64;96904.69;490918;1147;104854;-40
2020/12/29 17:37:51;;;;;;;64.50;29.20;;;;;;;3.38;72.89;96919.67;490800;1147;104509;-40
2020/12/29 17:47:54;;;;;;;67.47;26.80;;;;;;;3.28;72.94;96916.81;490314;1147;104906;-41
2020/12/29 17:57:58;;;;;;;68.83;27.97;;;;;;;3.08;73.56;96917.13;490462;1147;104531;-42
2020/12/29 18:08:02;;;;;;;59.43;26.03;;;;;;;2.99;73.68;96924.47;491148;1147;104834;-42
2020/12/29 18:18:05;;;;;;;55.37;25.37;;;;;;;3.02;73.97;96933.67;490664;1147;104597;-40
2020/12/29 18:28:08;;;;;;;47.33;22.70;;;;;;;3.06;74.39;96947.87;490698;1147;104521;-43
2020/12/29 18:38:11;;;;;;;48.83;20.33;;;;;;;3.02;74.36;96965.00;490547;1145;104521;-40
2020/12/29 18:48:14;;;;;;;44.10;20.23;;;;;;;2.89;74.25;96986.88;490429;1147;104838;-41
2020/12/29 19:02:43;;;;;;;70.22;28.50;;;;;;;2.79;74.81;97002.25;490950;1147;104438;-41
2020/12/29 19:12:51;;;;;;;155.33;55.70;;;;;;;2.71;74.81;97008.58;490801;1147;104817;-44
2020/12/29 19:22:59;;;;;;;101.43;39.47;;;;;;;2.55;75.01;97018.80;490927;1147;104556;-44
2020/12/29 19:33:02;;;;;;;78.97;34.30;;;;;;;2.53;75.25;97029.45;490684;1146;104469;-41
2020/12/29 19:43:05;;;;;;;166.87;61.93;;;;;;;2.61;75.23;97051.87;490634;1146;104915;-41
2020/12/29 19:53:09;;;;;;;81.40;35.70;;;;;;;2.70;75.39;97055.77;490900;1147;105179;-42
2020/12/29 20:03:12;;;;;;;179.70;64.30;;;;;;;2.54;75.74;97067.57;490950;1147;104557;-43
2020/12/29 20:13:18;;;;;;;103.60;45.70;;;;;;;2.58;76.15;97062.71;490724;1147;104869;-41
2020/12/29 20:23:22;;;;;;;85.93;39.43;;;;;;;2.62;76.21;97101.23;491451;1147;104867;-44
2020/12/29 20:33:25;;;;;;;101.47;44.87;;;;;;;2.56;75.95;97091.63;490613;1147;105584;-40
2020/12/29 20:43:28;;;;;;;135.67;56.10;;;;;;;2.37;75.76;97103.08;490933;1147;105696;-42
2020/12/29 20:53:31;;;;;;;169.93;65.10;;;;;;;2.12;76.00;97109.08;490983;1147;104944;-42
2020/12/29 21:03:35;;;;;;;149.90;62.10;;;;;;;1.90;76.01;97117.50;490480;1147;104835;-40
2020/12/29 21:13:39;;;;;;;118.70;51.47;;;;;;;1.74;76.01;97130.02;490606;1147;104878;-44
2020/12/29 21:23:42;;;;;;;105.57;49.37;;;;;;;1.77;76.56;97142.63;490967;1147;104908;-42
2020/12/29 21:33:45;;;;;;;123.87;54.50;;;;;;;1.77;76.66;97153.05;491131;1147;104518;-40
2020/12/29 21:43:49;;;;;;;115.27;52.10;;;;;;;1.76;76.79;97154.05;490735;1147;104522;-41
2020/12/29 21:53:52;;;;;;;95.43;47.40;;;;;;;1.61;76.74;97176.97;490513;1147;104506;-41
2020/12/29 22:03:57;;;;;;;133.53;59.30;;;;;;;1.51;76.95;97163.61;491046;1146;104518;-42
2020/12/29 22:14:00;;;;;;;152.85;68.45;;;;;;;1.46;77.32;97169.45;490509;1146;104467;-41
2020/12/29 22:24:03;;;;;;;128.70;58.50;;;;;;;1.35;77.36;97171.88;490458;1147;104503;-42
2020/12/29 22:34:07;;;;;;;137.07;57.37;;;;;;;1.44;77.65;97183.69;490495;1147;104534;-41
2020/12/29 22:44:10;;;;;;;103.77;49.93;;;;;;;1.62;77.54;97177.77;490566;1147;104438;-43
2020/12/29 22:54:13;;;;;;;89.20;39.23;;;;;;;1.73;77.70;97175.32;490321;1147;104524;-41
2020/12/29 23:04:16;;;;;;;121.97;52.20;;;;;;;1.69;78.07;97184.57;490513;1147;104433;-41
2020/12/29 23:14:20;;;;;;;101.33;45.93;;;;;;;1.73;78.36;97200.58;490454;1147;104511;-42
2020/12/29 23:24:23;;;;;;;94.93;46.33;;;;;;;1.68;78.12;97192.59;490504;1147;104525;-41
2020/12/29 23:34:26;;;;;;;118.80;50.30;;;;;;;1.76;78.76;97185.33;490581;1147;104554;-41
2020/12/29 23:44:29;;;;;;;121.30;54.47;;;;;;;1.81;78.47;97188.09;490538;1147;104509;-43
2020/12/29 23:54:32;;;;;;;156.80;63.17;;;;;;;1.91;78.57;97184.25;491532;1147;104524;-43
